createdAt,value
2022-12-20T00:01:35.218Z,99.82
2022-12-20T00:04:05.859Z,99.59
2022-12-20T00:06:36.771Z,99.02
2022-12-20T00:09:06.421Z,99.20
2022-12-20T00:11:33.777Z,99.47
2022-12-20T00:14:00.684Z,99.29
2022-12-20T00:16:29.286Z,98.86
2022-12-20T00:19:02.301Z,99.19
2022-12-20T00:21:30.691Z,99.61
2022-12-20T00:23:58.358Z,99.81
2022-12-20T00:26:29.026Z,99.09
2022-12-20T00:28:57.054Z,98.63
2022-12-20T00:31:25.706Z,99.23
2022-12-20T00:33:55.309Z,99.48
2022-12-20T00:36:24.064Z,99.83
2022-12-20T00:38:54.294Z,100.00
2022-12-20T00:41:28.179Z,99.60
2022-12-20T00:43:55.591Z,98.61
2022-12-20T00:46:24.885Z,98.29
2022-12-20T00:48:54.522Z,99.11
2022-12-20T00:51:25.317Z,98.88
2022-12-20T00:53:53.304Z,99.05
2022-12-20T00:56:20.741Z,99.00
2022-12-20T00:58:48.876Z,98.68
2022-12-20T01:01:27.943Z,98.11
2022-12-20T01:03:55.275Z,98.21
2022-12-20T01:06:24.263Z,98.30
2022-12-20T01:08:52.831Z,98.48
2022-12-20T01:11:24.012Z,98.46
2022-12-20T01:13:56.241Z,98.37
2022-12-20T01:16:33.492Z,98.90
2022-12-20T01:19:01.489Z,98.62
2022-12-20T01:21:29.499Z,99.15
2022-12-20T01:23:56.840Z,99.63
2022-12-20T01:26:26.703Z,99.02
2022-12-20T01:28:56.384Z,99.00
2022-12-20T01:31:24.761Z,99.13
2022-12-20T01:33:52.716Z,99.48
2022-12-20T01:36:29.545Z,98.94
2022-12-20T01:39:01.235Z,99.72
2022-12-20T01:41:30.945Z,99.52
2022-12-20T01:44:01.561Z,99.45
2022-12-20T01:46:39.723Z,98.73
2022-12-20T01:49:26.828Z,98.28
2022-12-20T01:52:03.525Z,98.45
2022-12-20T01:54:45.207Z,98.00
2022-12-20T01:57:21.320Z,98.81
2022-12-20T01:59:51.045Z,98.83
2022-12-20T02:02:18.794Z,98.00
2022-12-20T02:04:45.987Z,98.69
2022-12-20T02:07:17.578Z,98.38
2022-12-20T02:09:45.305Z,99.07
2022-12-20T02:12:26.735Z,98.21
2022-12-20T02:15:30.714Z,97.76
2022-12-20T02:18:11.022Z,97.86
2022-12-20T02:21:07.263Z,96.55
2022-12-20T02:24:12.143Z,96.14
2022-12-20T02:27:07.822Z,96.16
2022-12-20T02:29:43.623Z,95.59
2022-12-20T02:32:24.829Z,96.79
2022-12-20T02:34:52.979Z,96.74
2022-12-20T02:37:20.380Z,96.85
2022-12-20T02:39:48.838Z,95.96
2022-12-20T02:42:22.565Z,95.20
2022-12-20T02:45:15.373Z,95.36
2022-12-20T02:47:57.781Z,94.43
2022-12-20T02:50:31.929Z,94.01
2022-12-20T02:53:00.668Z,94.45
2022-12-20T02:55:50.998Z,94.43
2022-12-20T02:58:39.248Z,93.54
2022-12-20T03:01:12.232Z,92.78
2022-12-20T03:03:40.137Z,93.25
2022-12-20T03:06:07.870Z,93.65
2022-12-20T03:08:35.828Z,94.00
2022-12-20T03:11:03.141Z,93.31
2022-12-20T03:13:32.108Z,94.20
2022-12-20T03:16:03.315Z,94.38
2022-12-20T03:18:30.258Z,93.48
2022-12-20T03:20:57.726Z,93.27
2022-12-20T03:23:25.436Z,91.87
2022-12-20T03:25:52.762Z,93.91
2022-12-20T03:28:40.018Z,93.39
2022-12-20T03:31:09.368Z,93.71
2022-12-20T03:33:44.503Z,94.04
2022-12-20T03:36:12.088Z,93.53
2022-12-20T03:38:39.497Z,92.46
2022-12-20T03:41:08.278Z,91.49
2022-12-20T03:43:35.534Z,91.62
2022-12-20T03:46:03.868Z,92.26
2022-12-20T03:48:35.082Z,91.09
2022-12-20T03:51:02.253Z,91.96
2022-12-20T03:53:29.948Z,91.12
2022-12-20T03:55:57.539Z,90.35
2022-12-20T03:58:25.093Z,89.48
2022-12-20T04:00:52.086Z,89.62
2022-12-20T04:03:55.304Z,89.59
2022-12-20T04:06:23.576Z,88.86
2022-12-20T04:08:51.538Z,90.01
2022-12-20T04:11:29.115Z,89.60
2022-12-20T04:14:04.907Z,88.67
2022-12-20T04:16:34.171Z,89.31
2022-12-20T04:19:02.228Z,88.21
2022-12-20T04:21:36.115Z,88.04
2022-12-20T04:24:05.367Z,87.27
2022-12-20T04:26:44.043Z,87.30
2022-12-20T04:29:12.484Z,87.01
2022-12-20T04:31:42.461Z,85.92
2022-12-20T04:34:10.100Z,87.24
2022-12-20T04:36:38.128Z,85.53
2022-12-20T04:39:14.475Z,84.24
2022-12-20T04:42:00.563Z,83.46
2022-12-20T04:44:28.591Z,83.36
2022-12-20T04:46:55.929Z,83.62
2022-12-20T04:49:23.312Z,83.41
2022-12-20T04:51:50.256Z,82.87
2022-12-20T04:54:18.623Z,83.83
2022-12-20T04:56:57.800Z,81.65
2022-12-20T04:59:25.145Z,81.50
2022-12-20T05:01:54.461Z,80.81
2022-12-20T05:04:50.577Z,80.44
2022-12-20T05:07:17.933Z,81.47
2022-12-20T05:09:51.295Z,81.26
2022-12-20T05:12:18.754Z,81.29
2022-12-20T05:14:46.287Z,81.15
2022-12-20T05:17:16.336Z,80.94
2022-12-20T05:19:44.079Z,79.98
2022-12-20T05:22:31.578Z,79.43
2022-12-20T05:25:30.365Z,80.52
2022-12-20T05:28:01.246Z,79.51
2022-12-20T05:30:32.401Z,80.51
2022-12-20T05:32:59.477Z,80.10
2022-12-20T05:35:27.450Z,79.44
2022-12-20T05:38:02.615Z,79.04
2022-12-20T05:40:31.979Z,78.57
2022-12-20T05:42:59.691Z,78.65
2022-12-20T05:45:35.844Z,79.01
2022-12-20T05:48:08.789Z,78.63
2022-12-20T05:50:39.737Z,78.75
2022-12-20T05:53:32.686Z,78.09
2022-12-20T05:56:04.092Z,78.72
2022-12-20T05:58:34.526Z,78.21
2022-12-20T06:01:06.353Z,78.00
2022-12-20T06:03:40.974Z,78.12
2022-12-20T06:06:15.419Z,78.44
2022-12-20T06:08:45.837Z,77.79
2022-12-20T06:11:36.337Z,77.35
2022-12-20T06:14:09.844Z,77.31
2022-12-20T06:16:40.653Z,77.14
2022-12-20T06:19:12.538Z,76.88
2022-12-20T06:21:41.811Z,76.84
2022-12-20T06:24:11.747Z,77.20
2022-12-20T06:26:42.514Z,77.50
2022-12-20T06:29:14.399Z,77.03
2022-12-20T06:31:47.885Z,77.37
2022-12-20T06:34:16.187Z,77.29
2022-12-20T06:36:43.908Z,77.42
2022-12-20T06:39:17.451Z,77.69
2022-12-20T06:42:00.118Z,77.14
2022-12-20T06:44:27.309Z,77.48
2022-12-20T06:46:54.503Z,77.56
2022-12-20T06:49:22.621Z,77.31
2022-12-20T06:51:50.479Z,77.62
2022-12-20T06:54:21.845Z,76.97
2022-12-20T06:56:48.867Z,76.40
2022-12-20T06:59:17.168Z,76.63
2022-12-20T07:01:44.984Z,77.18
2022-12-20T07:04:12.154Z,76.48
2022-12-20T07:06:39.202Z,76.80
2022-12-20T07:09:06.345Z,76.02
2022-12-20T07:11:33.664Z,76.36
2022-12-20T07:14:00.767Z,76.59
2022-12-20T07:16:27.741Z,76.12
2022-12-20T07:18:55.573Z,76.26
2022-12-20T07:21:22.626Z,76.34
2022-12-20T07:23:49.634Z,76.61
2022-12-20T07:26:16.624Z,76.43
2022-12-20T07:28:43.864Z,76.27
2022-12-20T07:31:11.112Z,76.21
2022-12-20T07:33:39.101Z,76.35
2022-12-20T07:36:11.451Z,75.77
2022-12-20T07:38:39.123Z,75.95
2022-12-20T07:41:10.538Z,76.38
2022-12-20T07:43:38.146Z,76.55
2022-12-20T07:46:06.683Z,76.55
2022-12-20T07:48:34.499Z,75.69
2022-12-20T07:51:10.392Z,75.34
2022-12-20T07:53:44.567Z,76.04
2022-12-20T07:56:13.890Z,75.37
2022-12-20T07:58:43.394Z,75.92
2022-12-20T08:01:13.049Z,75.00
2022-12-20T08:03:51.076Z,75.01
2022-12-20T08:06:19.167Z,74.35
2022-12-20T08:08:51.550Z,74.46
2022-12-20T08:11:20.848Z,73.97
2022-12-20T08:13:55.657Z,73.60
2022-12-20T08:16:24.941Z,73.44
2022-12-20T08:18:52.248Z,73.90
2022-12-20T08:21:19.473Z,73.01
2022-12-20T08:23:46.361Z,73.25
2022-12-20T08:26:13.586Z,72.88
2022-12-20T08:28:40.686Z,73.03
2022-12-20T08:31:08.974Z,72.37
2022-12-20T08:33:38.614Z,72.13
2022-12-20T08:36:10.867Z,72.29
2022-12-20T08:38:38.209Z,72.53
2022-12-20T08:41:11.132Z,72.24
2022-12-20T08:43:39.401Z,72.35
2022-12-20T08:46:08.166Z,72.86
2022-12-20T08:48:36.068Z,72.03
2022-12-20T08:51:09.501Z,72.38
2022-12-20T08:53:37.540Z,72.19
2022-12-20T08:56:18.080Z,72.18
2022-12-20T08:58:45.812Z,72.24
2022-12-20T09:01:15.654Z,72.36
2022-12-20T09:03:43.206Z,71.73
2022-12-20T09:06:13.586Z,71.49
2022-12-20T09:08:41.213Z,71.68
2022-12-20T09:11:12.238Z,71.88
2022-12-20T09:13:43.969Z,71.71
2022-12-20T09:16:17.278Z,72.11
2022-12-20T09:18:44.457Z,71.75
2022-12-20T09:21:11.629Z,71.78
2022-12-20T09:23:38.791Z,71.88
2022-12-20T09:26:10.768Z,71.65
2022-12-20T09:28:38.111Z,72.05
2022-12-20T09:31:07.465Z,72.04
2022-12-20T09:33:35.568Z,71.68
2022-12-20T09:36:03.967Z,72.03
2022-12-20T09:38:32.465Z,72.40
2022-12-20T09:41:03.617Z,72.22
2022-12-20T09:43:32.127Z,71.79
2022-12-20T09:46:01.639Z,71.94
2022-12-20T09:48:38.150Z,71.69
2022-12-20T09:51:18.488Z,72.25
2022-12-20T09:54:22.971Z,71.20
2022-12-20T09:57:19.191Z,71.70
2022-12-20T09:59:49.830Z,72.16
2022-12-20T10:05:46.112Z,72.15
2022-12-20T10:08:24.778Z,72.07
2022-12-20T10:10:59.722Z,72.02
2022-12-20T10:13:38.956Z,72.01
2022-12-20T10:16:33.806Z,72.35
2022-12-20T10:19:13.041Z,72.26
2022-12-20T10:22:04.465Z,72.19
2022-12-20T10:24:33.310Z,71.90
2022-12-20T10:27:13.119Z,71.00
2022-12-20T10:29:41.054Z,71.07
2022-12-20T10:32:19.020Z,71.08
2022-12-20T10:35:13.367Z,70.90
2022-12-20T10:38:09.949Z,71.37
2022-12-20T10:41:20.569Z,70.94
2022-12-20T10:43:51.502Z,71.40
2022-12-20T10:46:22.042Z,70.57
2022-12-20T10:48:49.638Z,70.64
2022-12-20T10:51:27.675Z,70.87
2022-12-20T10:54:04.121Z,71.03
2022-12-20T10:56:53.907Z,70.43
2022-12-20T10:59:21.400Z,71.09
2022-12-20T11:01:49.769Z,70.93
2022-12-20T11:04:29.065Z,70.49
2022-12-20T11:06:57.217Z,70.90
2022-12-20T11:09:33.535Z,70.59
2022-12-20T11:12:15.761Z,70.38
2022-12-20T11:14:47.744Z,70.53
2022-12-20T11:17:14.748Z,71.66
2022-12-20T11:19:56.831Z,71.10
2022-12-20T11:22:52.149Z,71.65
2022-12-20T11:25:25.344Z,71.58
2022-12-20T11:28:14.240Z,71.55
2022-12-20T11:30:54.431Z,71.54
2022-12-20T11:33:36.664Z,71.94
2022-12-20T11:36:03.755Z,71.75
2022-12-20T11:38:42.739Z,72.32
2022-12-20T11:41:45.132Z,72.29
2022-12-20T11:44:33.192Z,72.88
2022-12-20T11:47:57.359Z,72.63
2022-12-20T11:50:58.913Z,72.37
2022-12-20T11:53:32.996Z,73.08
2022-12-20T11:56:07.000Z,72.91
2022-12-20T11:58:46.423Z,73.55
2022-12-20T12:01:18.184Z,73.58
2022-12-20T12:04:11.478Z,73.43
2022-12-20T12:06:46.466Z,74.03
2022-12-20T12:09:16.526Z,74.50
2022-12-20T12:12:08.875Z,74.42
2022-12-20T12:14:54.921Z,75.15
2022-12-20T12:17:37.101Z,75.18
2022-12-20T12:20:34.047Z,75.69
2022-12-20T12:23:14.586Z,75.46
2022-12-20T12:25:41.929Z,75.72
2022-12-20T12:28:13.143Z,75.91
2022-12-20T12:30:46.360Z,75.96
2022-12-20T12:33:38.070Z,75.83
2022-12-20T12:36:42.744Z,76.42
2022-12-20T12:39:22.485Z,76.70
2022-12-20T12:41:52.659Z,76.72
2022-12-20T12:44:19.608Z,76.93
2022-12-20T12:46:48.420Z,77.11
2022-12-20T12:49:24.579Z,77.20
2022-12-20T12:51:56.078Z,77.31
2022-12-20T12:54:27.388Z,77.27
2022-12-20T12:57:06.827Z,77.51
2022-12-20T12:59:33.908Z,78.34
2022-12-20T13:02:07.068Z,77.67
2022-12-20T13:05:25.887Z,77.61
2022-12-20T13:07:53.857Z,78.03
2022-12-20T13:10:25.006Z,78.17
2022-12-20T13:12:52.918Z,78.56
2022-12-20T13:15:22.859Z,77.68
2022-12-20T13:17:58.938Z,78.52
2022-12-20T13:20:29.091Z,78.49
2022-12-20T13:23:18.012Z,78.24
2022-12-20T13:25:49.638Z,78.34
2022-12-20T13:28:19.783Z,79.07
2022-12-20T13:30:53.299Z,78.75
2022-12-20T13:33:24.648Z,78.65
2022-12-20T13:36:03.980Z,79.11
2022-12-20T13:38:43.371Z,79.21
2022-12-20T13:41:34.828Z,79.28
2022-12-20T13:44:14.870Z,79.04
2022-12-20T13:46:54.160Z,79.00
2022-12-20T13:49:28.636Z,79.22
2022-12-20T13:52:25.518Z,79.00
2022-12-20T13:54:55.929Z,79.03
2022-12-20T13:57:33.169Z,79.66
2022-12-20T14:00:07.263Z,79.54
2022-12-20T14:02:41.219Z,79.16
2022-12-20T14:05:18.188Z,79.48
2022-12-20T14:07:56.105Z,79.24
2022-12-20T14:10:25.133Z,79.07
2022-12-20T14:12:53.658Z,79.64
2022-12-20T14:15:26.279Z,79.04
2022-12-20T14:17:53.824Z,79.69
2022-12-20T14:20:33.853Z,78.99
2022-12-20T14:23:06.513Z,79.81
2022-12-20T14:25:59.502Z,80.06
2022-12-20T14:28:31.826Z,80.56
2022-12-20T14:31:28.353Z,80.56
2022-12-20T14:34:29.735Z,80.73
2022-12-20T14:37:29.172Z,80.63
2022-12-20T14:39:59.324Z,81.00
2022-12-20T14:42:33.008Z,80.82
2022-12-20T14:45:09.395Z,81.22
2022-12-20T14:47:39.159Z,80.94
2022-12-20T14:50:27.203Z,81.38
2022-12-20T14:52:54.483Z,81.50
2022-12-20T14:55:28.056Z,81.98
2022-12-20T14:57:56.958Z,81.73
2022-12-20T15:00:30.643Z,81.28
2022-12-20T15:03:23.786Z,81.92
2022-12-20T15:05:56.240Z,82.31
2022-12-20T15:08:23.687Z,82.03
2022-12-20T15:10:57.772Z,82.45
2022-12-20T15:13:51.705Z,82.84
2022-12-20T15:16:29.631Z,82.56
2022-12-20T15:18:59.255Z,83.10
2022-12-20T15:21:36.248Z,83.07
2022-12-20T15:24:10.395Z,83.21
2022-12-20T15:26:40.149Z,82.94
2022-12-20T15:29:07.503Z,83.43
2022-12-20T15:31:43.456Z,83.32
2022-12-20T15:34:18.597Z,83.47
2022-12-20T15:36:46.924Z,83.37
2022-12-20T15:39:14.962Z,83.56
2022-12-20T15:41:46.558Z,83.96
2022-12-20T15:44:21.532Z,83.33
2022-12-20T15:46:49.125Z,83.48
2022-12-20T15:49:26.321Z,83.54
2022-12-20T15:51:55.908Z,83.80
2022-12-20T15:54:30.949Z,83.99
2022-12-20T15:57:03.187Z,84.00
2022-12-20T15:59:59.034Z,83.55
2022-12-20T16:02:24.898Z,84.11
2022-12-20T16:04:53.606Z,83.97
2022-12-20T16:07:21.025Z,84.18
2022-12-20T16:09:48.239Z,84.16
2022-12-20T16:12:18.574Z,84.28
2022-12-20T16:14:45.851Z,84.69
2022-12-20T16:17:14.411Z,84.25
2022-12-20T16:19:46.088Z,84.25
2022-12-20T16:22:18.166Z,84.52
2022-12-20T16:24:46.345Z,84.21
2022-12-20T16:27:13.938Z,84.23
2022-12-20T16:29:41.714Z,84.62
2022-12-20T16:32:18.506Z,84.63
2022-12-20T16:34:46.477Z,84.38
2022-12-20T16:37:15.487Z,84.53
2022-12-20T16:39:43.206Z,85.09
2022-12-20T16:42:13.395Z,84.35
2022-12-20T16:44:43.504Z,84.62
2022-12-20T16:47:11.577Z,84.81
2022-12-20T16:49:44.600Z,84.60
2022-12-20T16:52:18.110Z,84.69
2022-12-20T16:54:45.313Z,84.64
2022-12-20T16:57:12.474Z,84.51
2022-12-20T16:59:39.646Z,84.69
2022-12-20T17:02:22.982Z,84.48
2022-12-20T17:04:51.137Z,84.42
2022-12-20T17:07:21.030Z,84.36
2022-12-20T17:09:55.173Z,84.55
2022-12-20T17:12:27.627Z,84.48
2022-12-20T17:14:56.705Z,84.80
2022-12-20T17:17:23.924Z,84.87
2022-12-20T17:19:50.825Z,84.99
2022-12-20T17:25:03.217Z,85.09
2022-12-20T17:27:30.479Z,85.01
2022-12-20T17:29:57.386Z,85.27
2022-12-20T17:32:25.720Z,85.74
2022-12-20T17:34:54.082Z,85.78
2022-12-20T17:37:21.734Z,86.30
2022-12-20T17:39:49.288Z,85.75
2022-12-20T17:42:17.076Z,85.69
2022-12-20T17:44:47.546Z,85.65
2022-12-20T17:47:14.622Z,86.28
2022-12-20T17:49:41.605Z,86.04
2022-12-20T17:52:15.755Z,85.97
2022-12-20T17:54:43.288Z,86.12
2022-12-20T17:57:17.176Z,86.03
2022-12-20T17:59:46.759Z,85.62
2022-12-20T18:02:25.266Z,86.66
2022-12-20T18:04:53.520Z,86.34
2022-12-20T18:07:20.865Z,86.63
2022-12-20T18:09:48.975Z,87.31
2022-12-20T18:12:16.750Z,86.85
2022-12-20T18:14:43.899Z,87.14
2022-12-20T18:17:11.284Z,87.90
2022-12-20T18:19:38.737Z,87.85
2022-12-20T18:22:06.734Z,87.77
2022-12-20T18:24:33.896Z,88.15
2022-12-20T18:27:01.682Z,88.09
2022-12-20T18:29:29.421Z,88.06
2022-12-20T18:31:56.617Z,88.58
2022-12-20T18:34:23.984Z,88.37
2022-12-20T18:36:51.099Z,89.04
2022-12-20T18:39:18.635Z,89.62
2022-12-20T18:41:45.956Z,89.51
2022-12-20T18:44:13.035Z,89.70
2022-12-20T18:46:41.013Z,90.32
2022-12-20T18:49:09.504Z,90.70
2022-12-20T18:51:37.082Z,90.83
2022-12-20T18:54:06.113Z,90.34
2022-12-20T18:56:36.693Z,90.85
2022-12-20T18:59:10.911Z,91.43
2022-12-20T19:01:40.854Z,91.08
2022-12-20T19:04:08.723Z,91.56
2022-12-20T19:06:37.509Z,90.84
2022-12-20T19:09:08.502Z,90.90
2022-12-20T19:11:35.977Z,90.80
2022-12-20T19:14:03.885Z,90.74
2022-12-20T19:16:32.997Z,90.96
2022-12-20T19:19:02.435Z,91.15
2022-12-20T19:21:31.969Z,90.89
2022-12-20T19:24:02.364Z,91.47
2022-12-20T19:26:30.035Z,91.82
2022-12-20T19:28:57.679Z,91.69
2022-12-20T19:31:32.947Z,91.36
2022-12-20T19:34:10.458Z,91.91
2022-12-20T19:36:39.353Z,91.59
2022-12-20T19:39:12.487Z,91.87
2022-12-20T19:41:40.750Z,91.30
2022-12-20T19:44:09.048Z,91.48
2022-12-20T19:46:36.500Z,91.75
2022-12-20T19:49:04.277Z,92.24
2022-12-20T19:51:32.137Z,92.46
2022-12-20T19:54:00.080Z,91.81
2022-12-20T19:56:36.355Z,91.85
2022-12-20T19:59:04.010Z,91.88
2022-12-20T20:01:31.220Z,91.68
2022-12-20T20:04:00.581Z,91.58
2022-12-20T20:06:28.769Z,91.71
2022-12-20T20:08:57.848Z,92.24
2022-12-20T20:11:25.271Z,91.32
2022-12-20T20:13:52.836Z,91.74
2022-12-20T20:16:22.756Z,91.28
2022-12-20T20:18:50.667Z,91.89
2022-12-20T20:21:22.670Z,91.80
2022-12-20T20:23:54.890Z,91.52
2022-12-20T20:26:24.933Z,91.33
2022-12-20T20:28:52.723Z,90.97
2022-12-20T20:31:20.964Z,91.32
2022-12-20T20:33:48.538Z,91.17
2022-12-20T20:36:18.237Z,91.07
2022-12-20T20:38:46.141Z,91.60
2022-12-20T20:41:14.329Z,91.46
2022-12-20T20:43:42.195Z,91.56
2022-12-20T20:46:11.820Z,91.43
2022-12-20T20:48:39.909Z,91.13
2022-12-20T20:51:07.356Z,91.39
2022-12-20T20:53:35.546Z,90.79
2022-12-20T20:56:03.967Z,90.94
2022-12-20T20:58:31.885Z,91.19
2022-12-20T21:01:01.166Z,90.81
2022-12-20T21:03:30.466Z,90.52
2022-12-20T21:08:45.591Z,90.54
2022-12-20T21:11:13.141Z,89.85
2022-12-20T21:13:40.507Z,89.99
2022-12-20T21:16:20.424Z,89.95
2022-12-20T21:18:58.888Z,89.81
2022-12-20T21:21:27.079Z,89.92
2022-12-20T21:23:55.212Z,90.17
2022-12-20T21:26:25.233Z,90.36
2022-12-20T21:28:56.981Z,91.06
2022-12-20T21:31:24.228Z,90.41
2022-12-20T21:33:51.322Z,91.00
2022-12-20T21:36:19.054Z,90.75
2022-12-20T21:38:50.962Z,90.46
2022-12-20T21:41:19.383Z,90.55
2022-12-20T21:43:46.910Z,90.47
2022-12-20T21:46:13.990Z,90.19
2022-12-20T21:48:43.223Z,90.13
2022-12-20T21:51:11.796Z,89.93
2022-12-20T21:53:43.560Z,89.58
2022-12-20T21:56:11.109Z,89.93
2022-12-20T21:58:57.746Z,89.60
2022-12-20T22:01:27.433Z,89.12
2022-12-20T22:03:57.895Z,89.64
2022-12-20T22:06:25.712Z,89.30
2022-12-20T22:08:52.710Z,88.82
2022-12-20T22:11:19.943Z,88.69
2022-12-20T22:13:47.427Z,88.76
2022-12-20T22:16:21.223Z,88.52
2022-12-20T22:18:50.536Z,88.33
2022-12-20T22:21:19.607Z,88.29
2022-12-20T22:23:46.913Z,87.81
2022-12-20T22:26:16.883Z,88.01
2022-12-20T22:28:47.357Z,88.42
2022-12-20T22:31:15.242Z,87.73
2022-12-20T22:33:42.514Z,87.82
2022-12-20T22:36:10.779Z,88.44
2022-12-20T22:38:37.857Z,88.31
2022-12-20T22:41:07.549Z,88.99
2022-12-20T22:43:34.521Z,88.68
2022-12-20T22:48:47.184Z,89.30
2022-12-20T22:51:18.948Z,88.85
2022-12-20T22:53:47.678Z,89.96
2022-12-20T22:56:16.480Z,89.12
2022-12-20T22:58:43.857Z,89.92
2022-12-20T23:01:12.824Z,89.76
2022-12-20T23:03:40.296Z,89.53
2022-12-20T23:06:10.408Z,90.22
2022-12-20T23:08:37.589Z,90.08
2022-12-20T23:11:24.970Z,89.43
2022-12-20T23:14:10.690Z,89.59
2022-12-20T23:16:38.642Z,90.41
2022-12-20T23:19:05.782Z,90.95
2022-12-20T23:21:51.236Z,90.89
2022-12-20T23:24:18.241Z,90.52
2022-12-20T23:26:45.200Z,90.60
2022-12-20T23:29:14.230Z,90.67
2022-12-20T23:31:41.793Z,91.23
2022-12-20T23:34:08.979Z,91.23
2022-12-20T23:36:35.878Z,91.23
2022-12-20T23:39:03.691Z,91.48
2022-12-20T23:41:30.786Z,91.49
2022-12-20T23:43:57.816Z,91.52
2022-12-20T23:46:25.408Z,91.07
2022-12-20T23:48:53.270Z,91.06
2022-12-20T23:51:21.296Z,91.07
2022-12-20T23:53:50.517Z,91.27
2022-12-20T23:56:20.743Z,91.22
2022-12-20T23:58:53.937Z,91.30
